Usk, WA (99180)

1:42 AM PDT on September 04, 2015 (GMT -0700)
RAWS | | Change Station
CLOSE
Current Station
Personal Weather Station
Location: Cusick, WA
Elevation: 2450 ft
Nearby Weather Stations

Elev 2450 ft 48.42 °N, 117.36 °W | Updated 47 minutes ago

Partly Cloudy
Partly Cloudy
38 °F
Feels Like 38 °F
N
1
Wind Variable Wind from SW
Gusts 6.0 mph

Today
High -- | Low -- °F
--% Chance of Precip.
Yesterday
High -- | Low -- °F
Precip. -- in
6:10 AM 7:24 PM
Waning Gibbous, 61% visible
Pressure 29.97 in
Visibility 10.0 miles
Clouds Scattered Clouds 8000 ft
Windchill 38 °F
Dew Point 33 °F
Humidity 82%
Rainfall in
Snow Depth Not available.
UV 0 out of 12
Pollen 7.00 out of 12
Air Quality Not available.
Flu Activity Not available.
METAR KDEW 040753Z AUTO 00000KT 10SM SCT080 02/M02 A2996 RMK AO2 SLP147 T00221022 401940017
Pressure 29.97 in
Visibility 10.0 miles
Clouds Scattered Clouds 8000 ft
Windchill 38 °F
Dew Point 33 °F
Humidity 82%
Rainfall in
Snow Depth Not available.
UV 0 out of 12
Pollen 7.00 out of 12
Air Quality Not available.
Flu Activity Not available.
METAR KDEW 040753Z AUTO 00000KT 10SM SCT080 02/M02 A2996 RMK AO2 SLP147 T00221022 401940017

10-Day Weather Forecast

×

Almanac

Astronomy

Sep. 04, 2015 Rise Set
Actual Time
Civil Twilight
Nautical Twilight
Astronomical Twilight
Moon
Length of Visible Light
Length of Day
Tomorrow will be .
, % of the Moon is Illuminated

Today's Extremes

State Highs State Lows

Community

WunderPhotos

Upload Photos

1,852,141 photos uploaded!

WunderBlogs® & News

Nearby

Air Quality

  Air Quality AQ Index Pollutant
Not available.

Snow Depth

Station Depth Elevation

Earthquake Activity

City Distance Mag. Time & Date
Minimum magnitude displayed is 2.5.

Coastal Water Temperatures

Place Temperature

Stations

Nearby Weather Stations

Station Location Temp. Windchill Dew Point Humidity Wind Precip. Elev Updated Type